Time;durP1;ratioP1;P1;durP2;ratioP2;P2;SDS_P1;SDS_P2;PMS_P1;PMS_P2;Temp;Humidity;BMP_temperature;BMP_pressure;BME280_temperature;BME280_humidity;BME280_pressure;Samples;Min_cycle;Max_cycle;Signal;HPM_P1;HPM_P2
2023/04/23 00:00:22;;;;;;;;;;;;;;;12.61;78.10;99769.31;5011807;28;20348;-90
2023/04/23 00:02:54;;;;;;;;;;;;;;;12.56;77.90;99781.78;5026773;28;20311;-89
2023/04/23 00:15:09;;;;;;;;;;;;;;;12.52;76.76;99780.97;4990090;28;19924;-89
2023/04/23 00:20:43;;;;;;;;;;;;;;;12.58;76.02;99785.25;4990224;28;20210;-89
2023/04/23 00:23:08;;;;;;;;;;;;;;;12.58;75.13;99782.63;4989675;28;20339;-90
2023/04/23 00:25:34;;;;;;;;;;;;;;;12.32;75.79;99791.97;4989356;28;19946;-88
2023/04/23 00:31:46;;;;;;;;;;;;;;;12.35;76.01;99794.53;4911839;29;19915;-93
2023/04/23 00:47:02;;;;;;;;;;;;;;;12.10;76.89;99801.25;4840861;29;20069;-91
2023/04/23 00:49:31;;;;;;;;;;;;;;;12.08;77.20;99797.75;4851852;29;19916;-90
2023/04/23 00:51:57;;;;;;;;;;;;;;;12.13;76.81;99804.69;4857155;29;19916;-90
2023/04/23 00:54:25;;;;;;;;;;;;;;;11.98;77.46;99799.72;4856568;29;19923;-90
2023/04/23 00:56:51;;;;;;;;;;;;;;;12.05;77.18;99803.09;4854933;29;19916;-91
2023/04/23 00:59:16;;;;;;;;;;;;;;;11.93;77.98;99797.16;4856687;29;19923;-91
2023/04/23 01:01:44;;;;;;;;;;;;;;;12.16;77.22;99803.78;4855912;29;20023;-90
2023/04/23 01:04:19;;;;;;;;;;;;;;;12.16;77.41;99802.00;4856752;29;20402;-90
2023/04/23 01:10:12;;;;;;;;;;;;;;;12.09;77.90;99805.66;4947595;29;19927;-90
2023/04/23 01:13:02;;;;;;;;;;;;;;;12.12;78.61;99804.72;5027485;28;19917;-90
2023/04/23 01:21:35;;;;;;;;;;;;;;;12.58;77.25;99800.28;4989586;28;20315;-92
2023/04/23 01:27:13;;;;;;;;;;;;;;;12.63;75.97;99803.69;4916085;29;19914;-91
2023/04/23 01:29:49;;;;;;;;;;;;;;;12.65;76.23;99801.88;4915765;29;20065;-90
2023/04/23 01:36:07;;;;;;;;;;;;;;;12.54;76.52;99795.06;4912886;29;19915;-91
2023/04/23 01:38:33;;;;;;;;;;;;;;;12.39;77.01;99779.50;4902302;29;19951;-92
2023/04/23 01:41:06;;;;;;;;;;;;;;;12.41;77.74;99796.22;4939563;28;20002;-90
2023/04/23 01:43:45;;;;;;;;;;;;;;;12.36;78.06;99793.66;4934716;28;19917;-90
2023/04/23 01:46:16;;;;;;;;;;;;;;;12.40;78.14;99796.25;4946793;29;20029;-90
2023/04/23 01:48:46;;;;;;;;;;;;;;;12.43;78.23;99801.47;4935481;29;19910;-90
2023/04/23 01:51:16;;;;;;;;;;;;;;;12.46;78.04;99807.56;4933810;29;20017;-91
2023/04/23 01:53:53;;;;;;;;;;;;;;;12.47;77.18;99806.66;4947407;29;20009;-90
2023/04/23 01:56:21;;;;;;;;;;;;;;;12.29;78.33;99807.91;4935168;29;19919;-94
2023/04/23 01:58:50;;;;;;;;;;;;;;;12.46;77.11;99806.69;4966983;28;19914;-91
2023/04/23 02:01:17;;;;;;;;;;;;;;;12.32;77.28;99802.53;4962403;28;19910;-89
2023/04/23 02:10:32;;;;;;;;;;;;;;;;;;;;;
2023/04/23 02:13:00;;;;;;;;;;;;;;;11.71;79.20;99803.69;5033994;28;19917;-89
2023/04/23 02:15:31;;;;;;;;;;;;;;;11.78;78.87;99808.84;5032976;28;20341;-89
2023/04/23 02:18:02;;;;;;;;;;;;;;;11.77;78.11;99807.13;5034038;28;19939;-88
2023/04/23 02:20:28;;;;;;;;;;;;;;;11.87;77.92;99810.44;5014858;28;19921;-88
2023/04/23 02:22:53;;;;;;;;;;;;;;;11.86;77.28;99806.06;5034051;28;19917;-88
2023/04/23 02:25:33;;;;;;;;;;;;;;;11.91;77.03;99808.59;5033296;28;20391;-87
2023/04/23 02:28:07;;;;;;;;;;;;;;;11.82;76.93;99807.88;5031895;28;20298;-89
2023/04/23 02:30:35;;;;;;;;;;;;;;;11.63;77.42;99809.09;5004521;28;19920;-91
2023/04/23 02:33:00;;;;;;;;;;;;;;;11.64;77.83;99801.16;5025549;28;20365;-89
2023/04/23 02:35:26;;;;;;;;;;;;;;;11.34;78.25;99814.88;5024173;28;20008;-90
2023/04/23 02:37:53;;;;;;;;;;;;;;;11.30;78.87;99811.44;5032129;28;20372;-88
2023/04/23 02:40:20;;;;;;;;;;;;;;;11.24;79.17;99814.16;5032580;28;19924;-89
2023/04/23 02:42:45;;;;;;;;;;;;;;;11.09;80.16;99813.53;5033082;28;20000;-88
2023/04/23 02:45:18;;;;;;;;;;;;;;;11.26;79.29;99810.63;5033234;28;20007;-89
2023/04/23 02:47:43;;;;;;;;;;;;;;;11.35;78.56;99812.22;5014935;28;19935;-89
2023/04/23 02:50:09;;;;;;;;;;;;;;;11.24;79.03;99817.66;5014985;28;19917;-90
2023/04/23 02:52:38;;;;;;;;;;;;;;;11.07;79.78;99806.50;5033130;28;19913;-89
2023/04/23 02:55:07;;;;;;;;;;;;;;;10.90;80.46;99812.03;5031391;28;20373;-89
2023/04/23 02:57:44;;;;;;;;;;;;;;;10.83;80.93;99819.19;5031692;28;19920;-89
2023/04/23 03:00:11;;;;;;;;;;;;;;;10.89;80.74;99811.16;5022079;28;19913;-89
2023/04/23 03:02:36;;;;;;;;;;;;;;;10.82;81.11;99820.06;5011640;28;19921;-88
2023/04/23 03:05:15;;;;;;;;;;;;;;;11.07;80.27;99820.56;4995264;28;19913;-88
2023/04/23 03:07:48;;;;;;;;;;;;;;;10.98;80.24;99818.06;5032265;28;19913;-88
2023/04/23 03:10:13;;;;;;;;;;;;;;;10.88;80.31;99825.25;5031848;28;19924;-87
2023/04/23 03:12:38;;;;;;;;;;;;;;;11.02;79.16;99826.84;5032129;28;19913;-86
2023/04/23 03:15:04;;;;;;;;;;;;;;;11.05;79.30;99829.44;5031458;28;20367;-87
2023/04/23 03:17:29;;;;;;;;;;;;;;;10.91;79.65;99829.63;5031944;28;19975;-88
2023/04/23 03:19:55;;;;;;;;;;;;;;;10.72;80.75;99836.91;5031968;28;20382;-89
2023/04/23 03:22:20;;;;;;;;;;;;;;;10.84;80.37;99831.47;5031645;28;19983;-86
2023/04/23 03:24:46;;;;;;;;;;;;;;;10.68;81.68;99836.09;5031374;28;19920;-87
2023/04/23 03:27:11;;;;;;;;;;;;;;;10.72;81.30;99834.25;5030500;28;20302;-88
2023/04/23 03:29:40;;;;;;;;;;;;;;;10.79;81.09;99845.63;5031050;28;20294;-86
2023/04/23 03:32:09;;;;;;;;;;;;;;;10.64;81.99;99841.41;5022919;28;20299;-90
2023/04/23 03:34:34;;;;;;;;;;;;;;;10.84;80.78;99836.72;5012919;28;20355;-87
2023/04/23 03:37:00;;;;;;;;;;;;;;;10.95;80.63;99841.00;5029845;28;19917;-88
2023/04/23 03:39:25;;;;;;;;;;;;;;;10.97;80.34;99841.84;5023157;28;20300;-86
2023/04/23 03:41:50;;;;;;;;;;;;;;;10.95;80.80;99846.28;5028345;28;20398;-89
2023/04/23 03:44:16;;;;;;;;;;;;;;;11.00;80.00;99847.97;5028280;28;20372;-89
2023/04/23 03:46:41;;;;;;;;;;;;;;;11.10;79.30;99852.19;5011447;28;19990;-89
2023/04/23 03:49:06;;;;;;;;;;;;;;;11.13;79.60;99846.00;5031977;28;19917;-86
2023/04/23 03:51:32;;;;;;;;;;;;;;;11.41;79.12;99853.50;5030718;28;19917;-87
2023/04/23 03:53:57;;;;;;;;;;;;;;;11.49;78.19;99853.38;5032895;28;19913;-89
2023/04/23 03:56:22;;;;;;;;;;;;;;;11.49;78.00;99858.66;5006916;28;19921;-86
2023/04/23 03:58:47;;;;;;;;;;;;;;;11.69;78.04;99848.63;5029387;28;19943;-87
2023/04/23 04:01:13;;;;;;;;;;;;;;;11.80;77.33;99857.28;5030404;28;20358;-86
2023/04/23 04:03:38;;;;;;;;;;;;;;;11.62;78.04;99862.88;5027604;28;19920;-88
2023/04/23 04:06:04;;;;;;;;;;;;;;;11.78;77.21;99855.53;5029785;28;20010;-86
2023/04/23 04:08:29;;;;;;;;;;;;;;;11.76;76.74;99857.34;5030168;28;20383;-88
2023/04/23 04:10:55;;;;;;;;;;;;;;;11.86;76.48;99858.91;5029129;28;19916;-88
2023/04/23 04:13:20;;;;;;;;;;;;;;;12.03;76.43;99861.28;5030548;28;19920;-88
2023/04/23 04:15:46;;;;;;;;;;;;;;;11.90;75.67;99863.25;5014847;28;20393;-89
2023/04/23 04:18:11;;;;;;;;;;;;;;;11.96;74.89;99878.19;5013401;28;19913;-93
2023/04/23 04:20:37;;;;;;;;;;;;;;;11.68;75.44;99883.00;5029356;28;19975;-93
2023/04/23 04:23:02;;;;;;;;;;;;;;;11.77;75.74;99882.88;5010193;28;19913;-92
2023/04/23 04:25:28;;;;;;;;;;;;;;;12.00;75.04;99882.50;4999856;28;20720;-93
2023/04/23 04:27:57;;;;;;;;;;;;;;;12.15;76.05;99873.44;4998978;28;20444;-94
2023/04/23 04:30:25;;;;;;;;;;;;;;;12.28;74.85;99882.00;5017547;28;19967;-89
2023/04/23 04:32:54;;;;;;;;;;;;;;;12.34;75.06;99880.13;5013143;28;20290;-94
2023/04/23 04:35:20;;;;;;;;;;;;;;;12.13;74.06;99896.38;5012843;28;19917;-89
2023/04/23 04:37:45;;;;;;;;;;;;;;;12.15;73.98;99889.28;5030479;28;19992;-89
2023/04/23 04:40:18;;;;;;;;;;;;;;;12.27;74.64;99893.50;5030512;28;19920;-90
2023/04/23 04:42:45;;;;;;;;;;;;;;;12.53;74.46;99893.84;5030729;28;19928;-89
2023/04/23 04:45:10;;;;;;;;;;;;;;;12.64;73.31;99888.34;5030844;28;19971;-89
2023/04/23 04:47:36;;;;;;;;;;;;;;;12.92;72.67;99901.00;5029189;28;20363;-90
2023/04/23 04:50:04;;;;;;;;;;;;;;;12.76;71.74;99904.88;5030049;28;20379;-88
2023/04/23 04:52:29;;;;;;;;;;;;;;;12.82;70.90;99910.03;5030082;28;19923;-90
2023/04/23 04:54:55;;;;;;;;;;;;;;;12.87;70.08;99908.19;5030455;28;20279;-89
2023/04/23 04:57:23;;;;;;;;;;;;;;;12.94;69.75;99909.78;5029632;28;20429;-90
2023/04/23 04:59:49;;;;;;;;;;;;;;;12.99;69.81;99909.69;5029538;28;19926;-90
2023/04/23 05:02:17;;;;;;;;;;;;;;;12.99;68.72;99910.56;5012376;28;20351;-88
2023/04/23 05:04:42;;;;;;;;;;;;;;;13.02;69.07;99915.81;5029725;28;20016;-88
2023/04/23 05:07:14;;;;;;;;;;;;;;;13.10;68.96;99912.97;5029832;28;19921;-90
2023/04/23 05:09:39;;;;;;;;;;;;;;;13.24;68.40;99913.53;5029971;28;19913;-90
2023/04/23 05:12:07;;;;;;;;;;;;;;;13.41;68.41;99925.56;5025612;28;20310;-88
2023/04/23 05:14:33;;;;;;;;;;;;;;;13.39;67.63;99932.66;5023261;28;19963;-89
2023/04/23 05:17:02;;;;;;;;;;;;;;;13.50;67.54;99932.41;5029411;28;19917;-88
2023/04/23 05:19:27;;;;;;;;;;;;;;;13.57;68.09;99926.09;5030055;28;19913;-87
2023/04/23 05:21:53;;;;;;;;;;;;;;;13.84;66.75;99927.22;5029112;28;20416;-87
2023/04/23 05:27:14;;;;;;;;;;;;;;;13.92;67.67;99930.53;4982227;28;19921;-87
2023/04/23 05:32:54;;;;;;;;;;;;;;;14.41;65.33;99930.16;4987265;28;19960;-88
2023/04/23 05:35:37;;;;;;;;;;;;;;;14.53;64.47;99931.63;4988133;28;20009;-89
2023/04/23 05:38:05;;;;;;;;;;;;;;;14.63;64.57;99930.50;4971760;28;19922;-88
2023/04/23 05:40:30;;;;;;;;;;;;;;;14.62;64.87;99932.25;4941447;28;20311;-86
2023/04/23 05:42:57;;;;;;;;;;;;;;;14.60;64.61;99936.75;4987901;28;19917;-85
2023/04/23 05:45:34;;;;;;;;;;;;;;;14.91;63.99;99942.97;4988859;28;19913;-88
2023/04/23 05:54:47;;;;;;;;;;;;;;;15.86;60.94;99952.50;4988096;28;19917;-93
2023/04/23 05:57:18;;;;;;;;;;;;;;;15.85;60.16;99948.97;4988367;28;19914;-89
2023/04/23 05:59:47;;;;;;;;;;;;;;;15.55;59.76;99953.44;4985439;28;20400;-89
2023/04/23 06:02:12;;;;;;;;;;;;;;;15.52;59.53;99950.88;4990056;28;19925;-89
2023/04/23 06:04:37;;;;;;;;;;;;;;;15.72;59.64;99955.56;4988094;28;19914;-89
2023/04/23 06:07:14;;;;;;;;;;;;;;;15.97;58.72;99958.31;4971831;28;20494;-90
2023/04/23 06:09:40;;;;;;;;;;;;;;;15.43;59.54;99962.69;4983312;28;19976;-88
2023/04/23 06:12:07;;;;;;;;;;;;;;;15.56;58.82;99952.53;5014046;28;20353;-92
2023/04/23 06:14:39;;;;;;;;;;;;;;;15.87;58.19;99955.09;5014113;28;19952;-91
2023/04/23 06:23:14;;;;;;;;;;;;;;;16.87;53.82;99945.47;4953429;29;19973;-89
2023/04/23 06:25:39;;;;;;;;;;;;;;;16.88;54.16;99947.19;4954789;28;19914;-87
2023/04/23 06:28:05;;;;;;;;;;;;;;;17.10;54.17;99944.63;4972180;28;19940;-86
2023/04/23 06:30:30;;;;;;;;;;;;;;;17.05;53.90;99951.03;4972042;28;19921;-91
2023/04/23 06:32:56;;;;;;;;;;;;;;;16.92;54.43;99948.84;4971742;28;19945;-86
2023/04/23 06:35:24;;;;;;;;;;;;;;;16.85;53.32;99952.59;4971681;28;19914;-87
2023/04/23 06:37:49;;;;;;;;;;;;;;;17.20;53.62;99952.25;4970709;28;19918;-83
2023/04/23 06:40:15;;;;;;;;;;;;;;;17.70;52.53;99942.28;4971087;28;19941;-85
2023/04/23 06:42:40;;;;;;;;;;;;;;;17.97;52.66;99951.91;4971334;28;19914;-86
2023/04/23 06:45:06;;;;;;;;;;;;;;;18.13;50.93;99947.66;4971567;28;19925;-86
2023/04/23 06:47:31;;;;;;;;;;;;;;;18.04;50.21;99948.03;4966615;28;20393;-88
2023/04/23 06:49:58;;;;;;;;;;;;;;;18.23;50.48;99948.16;4971768;28;19921;-86
2023/04/23 06:52:24;;;;;;;;;;;;;;;18.45;48.30;99944.56;4970384;28;19922;-86
2023/04/23 06:54:50;;;;;;;;;;;;;;;18.55;48.78;99945.88;4972214;28;19966;-87
2023/04/23 06:57:15;;;;;;;;;;;;;;;18.84;48.30;99943.72;4970856;28;20344;-86
2023/04/23 06:59:40;;;;;;;;;;;;;;;18.70;49.42;99945.19;5009116;28;19920;-84
2023/04/23 07:02:06;;;;;;;;;;;;;;;18.78;48.00;99943.06;5028729;28;19914;-89
2023/04/23 07:04:31;;;;;;;;;;;;;;;19.32;47.46;99947.75;5020551;28;19923;-91
2023/04/23 07:06:57;;;;;;;;;;;;;;;19.62;46.54;99948.09;5016507;28;19994;-86
2023/04/23 07:09:22;;;;;;;;;;;;;;;19.26;46.48;99940.00;5028286;28;19913;-87
2023/04/23 07:11:47;;;;;;;;;;;;;;;19.13;48.03;99940.59;5022531;28;19925;-87
2023/04/23 07:14:15;;;;;;;;;;;;;;;19.48;46.38;99940.75;5031816;28;19917;-93
2023/04/23 07:16:40;;;;;;;;;;;;;;;19.51;46.75;99947.75;5026001;28;20310;-87
2023/04/23 07:19:06;;;;;;;;;;;;;;;19.48;46.36;99940.75;5025210;28;19921;-88
2023/04/23 07:21:31;;;;;;;;;;;;;;;20.10;45.95;99943.09;5023325;28;20482;-87
2023/04/23 07:24:05;;;;;;;;;;;;;;;19.98;44.19;99935.69;5031598;28;20082;-87
2023/04/23 07:26:31;;;;;;;;;;;;;;;19.95;42.32;99934.03;5026444;28;19920;-87
2023/04/23 07:28:56;;;;;;;;;;;;;;;19.79;42.63;99936.59;5024779;28;19917;-86
2023/04/23 07:31:22;;;;;;;;;;;;;;;20.19;42.39;99933.75;5031562;28;19920;-86
2023/04/23 07:33:48;;;;;;;;;;;;;;;20.13;42.07;99931.38;5024822;28;20011;-86
2023/04/23 07:36:13;;;;;;;;;;;;;;;20.63;40.63;99935.91;5030710;28;20003;-86
2023/04/23 07:38:38;;;;;;;;;;;;;;;20.79;41.76;99925.28;5015572;28;19917;-87
2023/04/23 07:41:04;;;;;;;;;;;;;;;20.60;41.63;99924.50;5016833;28;19959;-87
2023/04/23 07:43:29;;;;;;;;;;;;;;;20.28;40.81;99927.03;5017708;28;19913;-86
2023/04/23 07:45:55;;;;;;;;;;;;;;;19.92;41.96;99927.97;5015978;28;20376;-86
2023/04/23 07:48:20;;;;;;;;;;;;;;;20.34;40.80;99921.34;5017980;28;19913;-86
2023/04/23 07:50:45;;;;;;;;;;;;;;;20.33;41.04;99919.66;5014610;28;19924;-87
2023/04/23 07:53:11;;;;;;;;;;;;;;;20.21;42.42;99923.81;5019273;28;20010;-86
2023/04/23 07:55:36;;;;;;;;;;;;;;;20.51;43.91;99917.78;5013946;28;19918;-87
2023/04/23 07:58:01;;;;;;;;;;;;;;;20.80;40.25;99913.59;5030721;28;19913;-86
2023/04/23 08:00:27;;;;;;;;;;;;;;;20.38;41.62;99913.09;5030667;28;19913;-87
2023/04/23 08:02:52;;;;;;;;;;;;;;;20.52;42.04;99916.84;5028992;28;19924;-88
2023/04/23 08:05:17;;;;;;;;;;;;;;;20.62;41.45;99912.75;5031098;28;19921;-87
2023/04/23 08:07:43;;;;;;;;;;;;;;;20.28;40.35;99919.88;5031374;28;19963;-88
2023/04/23 08:10:08;;;;;;;;;;;;;;;20.52;40.44;99915.03;5030599;28;20363;-87
2023/04/23 08:12:34;;;;;;;;;;;;;;;20.54;43.05;99913.16;5030779;28;19917;-88
2023/04/23 08:15:00;;;;;;;;;;;;;;;21.11;39.78;99910.09;5030730;28;19913;-87
2023/04/23 08:17:26;;;;;;;;;;;;;;;21.19;39.91;99908.81;5030743;28;19924;-87
2023/04/23 08:19:51;;;;;;;;;;;;;;;21.20;40.05;99906.03;5030297;28;19984;-86
2023/04/23 08:22:16;;;;;;;;;;;;;;;20.88;40.29;99903.34;5029045;28;19979;-86
2023/04/23 08:24:43;;;;;;;;;;;;;;;21.23;39.97;99907.72;5030804;28;20012;-86
2023/04/23 08:27:08;;;;;;;;;;;;;;;20.58;40.75;99900.47;5030238;28;20310;-85
2023/04/23 08:29:34;;;;;;;;;;;;;;;20.55;41.75;99903.31;5030613;28;19947;-85
2023/04/23 08:31:59;;;;;;;;;;;;;;;20.82;41.23;99898.31;5030152;28;19913;-86
2023/04/23 08:34:25;;;;;;;;;;;;;;;21.00;41.08;99898.25;5028887;28;19917;-87
2023/04/23 08:36:50;;;;;;;;;;;;;;;20.62;41.06;99888.63;5028332;28;19975;-86
2023/04/23 08:39:15;;;;;;;;;;;;;;;20.49;42.51;99884.88;5030521;28;20399;-86
2023/04/23 08:41:41;;;;;;;;;;;;;;;20.63;40.36;99894.84;5029823;28;19913;-86
2023/04/23 08:44:17;;;;;;;;;;;;;;;21.03;40.10;99895.41;5030010;28;19952;-85
2023/04/23 08:46:43;;;;;;;;;;;;;;;20.45;41.77;99885.97;5030289;28;19970;-86
2023/04/23 08:49:12;;;;;;;;;;;;;;;20.72;43.42;99875.63;5030736;28;19970;-86
2023/04/23 08:51:41;;;;;;;;;;;;;;;21.11;41.99;99877.06;5030896;28;19936;-86
2023/04/23 08:54:10;;;;;;;;;;;;;;;21.03;42.37;99890.03;5030858;28;20014;-86
2023/04/23 08:56:36;;;;;;;;;;;;;;;20.58;43.61;99882.56;5030253;28;19964;-87
2023/04/23 08:59:02;;;;;;;;;;;;;;;20.81;41.09;99882.31;5031045;28;19995;-86
2023/04/23 09:01:28;;;;;;;;;;;;;;;20.51;41.00;99882.97;5030170;28;19913;-86
2023/04/23 09:03:54;;;;;;;;;;;;;;;20.62;40.28;99871.66;5030845;28;19923;-86
2023/04/23 09:06:20;;;;;;;;;;;;;;;20.65;40.04;99874.22;5030769;28;19981;-86
2023/04/23 09:08:45;;;;;;;;;;;;;;;21.13;38.11;99875.16;5030204;28;19913;-87
2023/04/23 09:11:11;;;;;;;;;;;;;;;21.46;40.26;99875.06;5030530;28;19913;-86
2023/04/23 09:13:39;;;;;;;;;;;;;;;21.61;39.76;99865.31;5030282;28;19913;-87
2023/04/23 09:16:05;;;;;;;;;;;;;;;21.94;36.84;99861.56;5030573;28;20390;-86
2023/04/23 09:18:31;;;;;;;;;;;;;;;21.94;38.02;99858.88;5030239;28;20028;-86
2023/04/23 09:20:56;;;;;;;;;;;;;;;21.91;39.94;99861.75;5030401;28;19999;-87
2023/04/23 09:23:23;;;;;;;;;;;;;;;21.78;38.13;99864.31;5028500;28;20372;-89
2023/04/23 09:25:48;;;;;;;;;;;;;;;21.05;39.38;99861.31;5029628;28;20000;-90
2023/04/23 09:28:14;;;;;;;;;;;;;;;21.05;38.84;99854.16;5029381;28;19945;-89
2023/04/23 09:30:43;;;;;;;;;;;;;;;21.09;40.42;99857.50;5029944;28;19980;-89
2023/04/23 09:33:10;;;;;;;;;;;;;;;21.10;38.47;99846.69;5028427;28;19917;-91
2023/04/23 09:35:36;;;;;;;;;;;;;;;20.83;37.19;99853.59;5029841;28;19964;-92
2023/04/23 09:38:06;;;;;;;;;;;;;;;20.56;38.90;99846.94;5030005;28;19917;-89
2023/04/23 09:40:31;;;;;;;;;;;;;;;21.05;39.92;99834.50;5029739;28;20460;-86
2023/04/23 09:42:58;;;;;;;;;;;;;;;20.71;36.09;99842.63;5029644;28;19913;-86
2023/04/23 09:45:24;;;;;;;;;;;;;;;20.26;37.12;99838.72;5032074;28;20398;-86
2023/04/23 09:47:51;;;;;;;;;;;;;;;20.44;37.45;99836.88;5033520;28;19913;-86
2023/04/23 09:50:17;;;;;;;;;;;;;;;20.28;36.19;99826.13;5032385;28;19913;-93
2023/04/23 09:53:04;;;;;;;;;;;;;;;20.03;37.13;99835.47;5034287;28;19920;-88
2023/04/23 09:55:40;;;;;;;;;;;;;;;20.15;38.39;99828.56;5034123;28;20003;-87
2023/04/23 09:58:09;;;;;;;;;;;;;;;20.36;37.16;99831.09;5016807;28;19913;-87
2023/04/23 10:00:36;;;;;;;;;;;;;;;20.51;37.28;99826.69;5033906;28;19913;-86
2023/04/23 10:03:01;;;;;;;;;;;;;;;20.41;38.18;99826.34;5034239;28;20007;-87
2023/04/23 10:05:27;;;;;;;;;;;;;;;20.35;37.28;99824.84;5034316;28;19947;-87
2023/04/23 10:07:53;;;;;;;;;;;;;;;20.62;39.41;99818.97;5033788;28;20318;-88
2023/04/23 10:10:18;;;;;;;;;;;;;;;20.66;41.26;99812.50;5016127;28;19940;-88
2023/04/23 10:12:46;;;;;;;;;;;;;;;20.45;39.14;99810.97;4995887;28;19913;-86
2023/04/23 10:15:12;;;;;;;;;;;;;;;20.85;37.63;99807.00;4991380;28;19929;-87
2023/04/23 10:17:38;;;;;;;;;;;;;;;21.15;42.53;99798.16;5011904;28;19916;-88
2023/04/23 10:20:05;;;;;;;;;;;;;;;21.35;37.03;99801.50;5016533;28;20416;-89
2023/04/23 10:22:32;;;;;;;;;;;;;;;20.73;40.65;99794.28;4995984;28;20004;-88
2023/04/23 10:25:00;;;;;;;;;;;;;;;20.65;38.01;99792.03;5011667;28;20307;-89
2023/04/23 10:27:29;;;;;;;;;;;;;;;20.44;39.40;99750.31;4997065;28;19918;-88
2023/04/23 10:29:56;;;;;;;;;;;;;;;20.79;38.33;99785.00;5013269;28;19909;-87
2023/04/23 10:32:22;;;;;;;;;;;;;;;20.83;37.86;99787.44;5013374;28;19914;-87
2023/04/23 10:34:51;;;;;;;;;;;;;;;20.54;38.44;99789.91;5011982;28;19923;-87
2023/04/23 10:37:18;;;;;;;;;;;;;;;20.81;37.60;99781.31;5020233;28;19921;-88
2023/04/23 10:39:44;;;;;;;;;;;;;;;20.61;41.81;99777.03;5032029;28;19924;-87
2023/04/23 10:42:12;;;;;;;;;;;;;;;20.81;39.59;99777.78;5032502;28;19962;-91
2023/04/23 10:44:38;;;;;;;;;;;;;;;20.73;38.50;99764.81;5030756;28;19917;-90
2023/04/23 10:47:05;;;;;;;;;;;;;;;21.04;37.14;99763.91;5032013;28;20676;-88
2023/04/23 10:49:33;;;;;;;;;;;;;;;20.60;39.13;99759.22;5009856;28;19928;-87
2023/04/23 10:52:03;;;;;;;;;;;;;;;20.75;37.86;99758.38;5031913;28;19924;-87
2023/04/23 10:54:30;;;;;;;;;;;;;;;20.75;40.42;99758.38;5031560;28;19932;-90
2023/04/23 10:57:00;;;;;;;;;;;;;;;20.70;38.45;99754.25;5022200;28;20314;-89
2023/04/23 10:59:28;;;;;;;;;;;;;;;20.75;40.78;99752.16;5029912;28;19917;-87
2023/04/23 11:01:55;;;;;;;;;;;;;;;21.21;36.15;99746.84;5031884;28;20275;-88
2023/04/23 11:04:24;;;;;;;;;;;;;;;20.68;36.43;99740.94;5031206;28;19983;-88
2023/04/23 11:06:51;;;;;;;;;;;;;;;20.78;40.62;99735.91;5030537;28;19913;-88
2023/04/23 11:09:29;;;;;;;;;;;;;;;20.65;40.97;99740.22;5031772;28;20000;-88
2023/04/23 11:11:56;;;;;;;;;;;;;;;20.88;36.26;99730.88;5037481;28;19913;-86
2023/04/23 11:14:32;;;;;;;;;;;;;;;20.62;36.46;99735.88;5036443;28;20384;-86
2023/04/23 11:16:57;;;;;;;;;;;;;;;20.65;35.76;99730.38;5028311;28;20016;-86
2023/04/23 11:19:23;;;;;;;;;;;;;;;20.78;35.37;99729.69;5037976;28;19960;-88
2023/04/23 11:21:56;;;;;;;;;;;;;;;20.72;34.99;99731.75;5040394;28;20371;-87
2023/04/23 11:24:22;;;;;;;;;;;;;;;20.49;35.35;99727.66;5036130;28;19917;-85
2023/04/23 11:26:50;;;;;;;;;;;;;;;20.53;37.54;99721.19;5033696;28;19927;-88
2023/04/23 11:29:16;;;;;;;;;;;;;;;20.43;37.59;99722.63;5034546;28;20003;-88
2023/04/23 11:31:42;;;;;;;;;;;;;;;20.84;36.59;99716.78;5032496;28;19917;-90
2023/04/23 11:34:08;;;;;;;;;;;;;;;20.85;36.62;99717.66;5031684;28;19971;-92
2023/04/23 11:36:34;;;;;;;;;;;;;;;20.79;37.86;99710.84;5030494;28;20344;-89
2023/04/23 11:39:02;;;;;;;;;;;;;;;21.17;37.08;99710.41;5030535;28;20003;-88
2023/04/23 11:41:29;;;;;;;;;;;;;;;21.41;37.07;99707.22;5031114;28;19917;-91
2023/04/23 11:43:55;;;;;;;;;;;;;;;21.77;35.12;99709.56;5034000;28;19921;-92
2023/04/23 11:46:20;;;;;;;;;;;;;;;21.03;38.08;99713.06;5029764;28;19917;-88
2023/04/23 11:48:47;;;;;;;;;;;;;;;20.74;38.54;99713.78;5031156;28;19913;-90
2023/04/23 11:51:12;;;;;;;;;;;;;;;20.80;37.62;99714.38;5030786;28;20011;-89
2023/04/23 11:53:43;;;;;;;;;;;;;;;20.92;35.79;99713.69;5030079;28;20037;-89
2023/04/23 11:56:09;;;;;;;;;;;;;;;20.85;35.91;99702.44;5019163;28;19923;-88
2023/04/23 11:58:34;;;;;;;;;;;;;;;20.88;35.81;99704.97;5032035;28;19913;-88
2023/04/23 12:01:01;;;;;;;;;;;;;;;21.17;34.31;99697.00;5031381;28;19909;-88
2023/04/23 12:03:27;;;;;;;;;;;;;;;20.90;35.65;99695.00;5025045;28;20288;-87
2023/04/23 12:05:54;;;;;;;;;;;;;;;20.80;36.10;99693.78;5031429;28;19966;-88
2023/04/23 12:08:20;;;;;;;;;;;;;;;20.76;35.15;99692.25;5013615;28;19951;-87
2023/04/23 12:10:48;;;;;;;;;;;;;;;20.79;36.85;99680.47;5030104;28;20387;-86
2023/04/23 12:13:15;;;;;;;;;;;;;;;20.81;35.61;99678.59;5031458;28;20382;-86
2023/04/23 12:15:45;;;;;;;;;;;;;;;21.11;36.58;99679.44;5030927;28;20362;-85
2023/04/23 12:18:10;;;;;;;;;;;;;;;21.09;36.75;99678.69;5030796;28;19999;-85
2023/04/23 12:20:36;;;;;;;;;;;;;;;21.34;36.62;99673.69;5012554;28;19996;-87
2023/04/23 12:23:05;;;;;;;;;;;;;;;21.43;35.48;99676.69;5030189;28;19917;-86
2023/04/23 12:25:31;;;;;;;;;;;;;;;21.57;35.10;99665.13;5030351;28;20382;-88
2023/04/23 12:28:00;;;;;;;;;;;;;;;21.36;36.52;99655.69;5030343;28;20385;-86
2023/04/23 12:30:28;;;;;;;;;;;;;;;21.32;34.32;99654.13;5030464;28;19928;-86
2023/04/23 12:33:00;;;;;;;;;;;;;;;21.32;35.37;99641.59;5012452;28;19917;-86
2023/04/23 12:35:42;;;;;;;;;;;;;;;21.62;34.90;99651.44;5031135;28;19917;-87
2023/04/23 12:38:27;;;;;;;;;;;;;;;21.78;35.24;99641.50;5031165;28;19917;-89
2023/04/23 12:40:56;;;;;;;;;;;;;;;21.43;35.22;99635.56;5030563;28;19936;-86
2023/04/23 12:43:22;;;;;;;;;;;;;;;21.24;34.02;99634.00;5031082;28;20378;-87
2023/04/23 12:45:48;;;;;;;;;;;;;;;21.53;33.94;99633.22;5036732;28;20031;-85
2023/04/23 12:48:13;;;;;;;;;;;;;;;21.58;33.52;99625.75;5019520;28;19970;-89
2023/04/23 12:50:39;;;;;;;;;;;;;;;21.72;32.77;99623.09;5031284;28;19920;-88
2023/04/23 12:53:04;;;;;;;;;;;;;;;21.80;34.44;99631.50;5030739;28;20370;-86
2023/04/23 12:55:30;;;;;;;;;;;;;;;21.40;35.04;99622.34;5030947;28;19932;-87
2023/04/23 12:57:55;;;;;;;;;;;;;;;21.45;34.54;99625.59;5032019;28;19913;-88
2023/04/23 13:00:21;;;;;;;;;;;;;;;21.41;34.91;99621.38;5030031;28;19913;-88
2023/04/23 13:02:46;;;;;;;;;;;;;;;21.46;34.33;99613.94;5023602;28;19943;-89
2023/04/23 13:05:12;;;;;;;;;;;;;;;21.76;34.20;99616.53;5030344;28;20384;-91
2023/04/23 13:07:37;;;;;;;;;;;;;;;21.27;35.67;99614.16;5030450;28;19920;-90
2023/04/23 13:10:08;;;;;;;;;;;;;;;21.25;35.27;99608.03;5030284;28;19986;-89
2023/04/23 13:12:33;;;;;;;;;;;;;;;21.08;34.48;99609.91;5029977;28;19917;-85
2023/04/23 13:15:11;;;;;;;;;;;;;;;20.93;34.89;99614.38;5030221;28;20021;-87
2023/04/23 13:17:37;;;;;;;;;;;;;;;21.33;32.92;99612.94;5029346;28;19975;-89
2023/04/23 13:20:20;;;;;;;;;;;;;;;21.71;32.71;99613.28;5031179;28;19920;-88
2023/04/23 13:22:45;;;;;;;;;;;;;;;21.63;32.50;99611.09;5037707;28;19916;-90
2023/04/23 13:25:11;;;;;;;;;;;;;;;21.89;33.26;99608.59;5040027;28;19924;-91
2023/04/23 13:27:36;;;;;;;;;;;;;;;21.60;33.20;99608.59;5033798;28;19923;-89
2023/04/23 13:30:03;;;;;;;;;;;;;;;21.64;35.05;99607.44;5032725;28;19924;-89
2023/04/23 13:32:31;;;;;;;;;;;;;;;21.48;33.83;99597.72;5025433;28;20027;-90
2023/04/23 13:35:02;;;;;;;;;;;;;;;21.43;34.34;99614.97;5053985;28;20309;-91
2023/04/23 13:37:29;;;;;;;;;;;;;;;21.54;34.33;99602.75;5027654;28;19923;-92
2023/04/23 13:39:54;;;;;;;;;;;;;;;21.61;33.43;99599.59;5033713;28;19917;-88
2023/04/23 13:42:19;;;;;;;;;;;;;;;21.59;32.54;99603.31;5027439;28;19913;-89
2023/04/23 13:44:46;;;;;;;;;;;;;;;21.65;34.36;99605.63;5015687;28;19913;-91
2023/04/23 13:47:11;;;;;;;;;;;;;;;21.41;33.45;99608.84;5014466;28;19917;-89
2023/04/23 13:49:36;;;;;;;;;;;;;;;21.65;33.58;99602.94;5014741;28;20298;-90
2023/04/23 13:52:05;;;;;;;;;;;;;;;21.85;32.72;99599.00;5017379;28;19914;-91
2023/04/23 13:54:30;;;;;;;;;;;;;;;22.14;32.75;99589.06;5014996;28;20294;-89
2023/04/23 13:56:59;;;;;;;;;;;;;;;21.94;32.28;99587.69;5014727;28;19913;-88
2023/04/23 13:59:25;;;;;;;;;;;;;;;21.41;33.05;99587.38;5015053;28;19921;-90